sensor_id;sensor_type;location;lat;lon;timestamp;temperature;humidity
58554;DHT22;48119;53.218;6.576;2023-11-21T00:01:57;12.70;99.90
58554;DHT22;48119;53.218;6.576;2023-11-21T00:04:24;12.70;99.90
58554;DHT22;48119;53.218;6.576;2023-11-21T00:06:50;12.70;99.90
58554;DHT22;48119;53.218;6.576;2023-11-21T00:09:16;12.70;99.90
58554;DHT22;48119;53.218;6.576;2023-11-21T00:11:43;12.70;99.90
58554;DHT22;48119;53.218;6.576;2023-11-21T00:14:10;12.70;99.90
58554;DHT22;48119;53.218;6.576;2023-11-21T00:16:36;12.70;99.90
58554;DHT22;48119;53.218;6.576;2023-11-21T00:19:02;12.70;99.90
58554;DHT22;48119;53.218;6.576;2023-11-21T00:21:28;12.70;99.90
58554;DHT22;48119;53.218;6.576;2023-11-21T00:23:54;12.70;99.90
58554;DHT22;48119;53.218;6.576;2023-11-21T00:26:19;12.70;99.90
58554;DHT22;48119;53.218;6.576;2023-11-21T00:28:45;12.70;99.90
58554;DHT22;48119;53.218;6.576;2023-11-21T00:31:11;12.70;99.90
58554;DHT22;48119;53.218;6.576;2023-11-21T00:33:37;12.70;99.90
58554;DHT22;48119;53.218;6.576;2023-11-21T00:36:02;12.70;99.90
58554;DHT22;48119;53.218;6.576;2023-11-21T00:38:28;12.70;99.90
58554;DHT22;48119;53.218;6.576;2023-11-21T00:40:54;12.70;99.90
58554;DHT22;48119;53.218;6.576;2023-11-21T00:43:24;12.70;99.90
58554;DHT22;48119;53.218;6.576;2023-11-21T00:45:50;12.70;99.90
58554;DHT22;48119;53.218;6.576;2023-11-21T00:48:16;12.70;99.90
58554;DHT22;48119;53.218;6.576;2023-11-21T00:50:44;12.70;99.90
58554;DHT22;48119;53.218;6.576;2023-11-21T00:53:09;12.70;99.90
58554;DHT22;48119;53.218;6.576;2023-11-21T00:55:36;12.70;99.90
58554;DHT22;48119;53.218;6.576;2023-11-21T00:58:02;12.70;99.90
58554;DHT22;48119;53.218;6.576;2023-11-21T01:00:29;12.70;99.90
58554;DHT22;48119;53.218;6.576;2023-11-21T01:02:55;12.60;99.90
58554;DHT22;48119;53.218;6.576;2023-11-21T01:05:21;12.70;99.90
58554;DHT22;48119;53.218;6.576;2023-11-21T01:07:47;12.70;99.90
58554;DHT22;48119;53.218;6.576;2023-11-21T01:10:13;12.60;99.90
58554;DHT22;48119;53.218;6.576;2023-11-21T01:12:39;12.70;99.90
58554;DHT22;48119;53.218;6.576;2023-11-21T01:15:06;12.70;99.90
58554;DHT22;48119;53.218;6.576;2023-11-21T01:17:37;12.70;99.90
58554;DHT22;48119;53.218;6.576;2023-11-21T01:20:04;12.70;99.90
58554;DHT22;48119;53.218;6.576;2023-11-21T01:22:38;12.60;99.90
58554;DHT22;48119;53.218;6.576;2023-11-21T01:25:04;12.60;99.90
58554;DHT22;48119;53.218;6.576;2023-11-21T01:27:33;12.60;99.90
58554;DHT22;48119;53.218;6.576;2023-11-21T01:30:00;12.60;99.90
58554;DHT22;48119;53.218;6.576;2023-11-21T01:32:25;12.60;99.90
58554;DHT22;48119;53.218;6.576;2023-11-21T01:34:51;12.60;99.90
58554;DHT22;48119;53.218;6.576;2023-11-21T01:37:17;12.60;99.90
58554;DHT22;48119;53.218;6.576;2023-11-21T01:39:46;12.60;99.90
58554;DHT22;48119;53.218;6.576;2023-11-21T01:42:12;12.60;99.90
58554;DHT22;48119;53.218;6.576;2023-11-21T01:44:38;12.60;99.90
58554;DHT22;48119;53.218;6.576;2023-11-21T01:47:05;12.70;99.90
58554;DHT22;48119;53.218;6.576;2023-11-21T01:49:35;12.70;99.90
58554;DHT22;48119;53.218;6.576;2023-11-21T01:52:02;12.70;99.90
58554;DHT22;48119;53.218;6.576;2023-11-21T01:54:30;12.70;99.90
58554;DHT22;48119;53.218;6.576;2023-11-21T01:56:58;12.70;99.90
58554;DHT22;48119;53.218;6.576;2023-11-21T01:59:32;12.70;99.90
58554;DHT22;48119;53.218;6.576;2023-11-21T02:01:59;12.70;99.90
58554;DHT22;48119;53.218;6.576;2023-11-21T02:04:25;12.70;99.90
58554;DHT22;48119;53.218;6.576;2023-11-21T02:06:51;12.70;99.90
58554;DHT22;48119;53.218;6.576;2023-11-21T02:09:17;12.60;99.90
58554;DHT22;48119;53.218;6.576;2023-11-21T02:11:43;12.60;99.90
58554;DHT22;48119;53.218;6.576;2023-11-21T02:14:09;12.60;99.90
58554;DHT22;48119;53.218;6.576;2023-11-21T02:16:36;12.60;99.90
58554;DHT22;48119;53.218;6.576;2023-11-21T02:19:04;12.60;99.90
58554;DHT22;48119;53.218;6.576;2023-11-21T02:21:34;12.60;99.90
58554;DHT22;48119;53.218;6.576;2023-11-21T02:24:01;12.60;99.90
58554;DHT22;48119;53.218;6.576;2023-11-21T02:26:27;12.60;99.90
58554;DHT22;48119;53.218;6.576;2023-11-21T02:28:53;12.60;99.90
58554;DHT22;48119;53.218;6.576;2023-11-21T02:31:19;12.60;99.90
58554;DHT22;48119;53.218;6.576;2023-11-21T02:33:44;12.60;99.90
58554;DHT22;48119;53.218;6.576;2023-11-21T02:36:10;12.70;99.90
58554;DHT22;48119;53.218;6.576;2023-11-21T02:38:36;12.60;99.90
58554;DHT22;48119;53.218;6.576;2023-11-21T02:41:01;12.60;99.90
58554;DHT22;48119;53.218;6.576;2023-11-21T02:43:27;12.60;99.90
58554;DHT22;48119;53.218;6.576;2023-11-21T02:45:53;12.60;99.90
58554;DHT22;48119;53.218;6.576;2023-11-21T02:48:18;12.60;99.90
58554;DHT22;48119;53.218;6.576;2023-11-21T02:50:44;12.60;99.90
58554;DHT22;48119;53.218;6.576;2023-11-21T02:53:10;12.60;99.90
58554;DHT22;48119;53.218;6.576;2023-11-21T02:55:36;12.60;99.90
58554;DHT22;48119;53.218;6.576;2023-11-21T02:58:02;12.60;99.90
58554;DHT22;48119;53.218;6.576;2023-11-21T03:00:29;12.60;99.90
58554;DHT22;48119;53.218;6.576;2023-11-21T03:02:56;12.60;99.90
58554;DHT22;48119;53.218;6.576;2023-11-21T03:05:22;12.60;99.90
58554;DHT22;48119;53.218;6.576;2023-11-21T03:07:47;12.60;99.90
58554;DHT22;48119;53.218;6.576;2023-11-21T03:10:13;12.60;99.90
58554;DHT22;48119;53.218;6.576;2023-11-21T03:12:39;12.60;99.90
58554;DHT22;48119;53.218;6.576;2023-11-21T03:15:06;12.60;99.90
58554;DHT22;48119;53.218;6.576;2023-11-21T03:17:32;12.50;99.90
58554;DHT22;48119;53.218;6.576;2023-11-21T03:20:00;12.50;99.90
58554;DHT22;48119;53.218;6.576;2023-11-21T03:22:26;12.50;99.90
58554;DHT22;48119;53.218;6.576;2023-11-21T03:24:52;12.50;99.90
58554;DHT22;48119;53.218;6.576;2023-11-21T03:27:20;12.50;99.90
58554;DHT22;48119;53.218;6.576;2023-11-21T03:29:48;12.50;99.90
58554;DHT22;48119;53.218;6.576;2023-11-21T03:32:14;12.50;99.90
58554;DHT22;48119;53.218;6.576;2023-11-21T03:34:57;12.50;99.90
58554;DHT22;48119;53.218;6.576;2023-11-21T03:37:23;12.50;99.90
58554;DHT22;48119;53.218;6.576;2023-11-21T03:39:50;12.50;99.90
58554;DHT22;48119;53.218;6.576;2023-11-21T03:42:16;12.50;99.90
58554;DHT22;48119;53.218;6.576;2023-11-21T03:44:42;12.50;99.90
58554;DHT22;48119;53.218;6.576;2023-11-21T03:47:07;12.50;99.90
58554;DHT22;48119;53.218;6.576;2023-11-21T03:49:33;12.50;99.90
58554;DHT22;48119;53.218;6.576;2023-11-21T03:51:59;12.50;99.90
58554;DHT22;48119;53.218;6.576;2023-11-21T03:54:24;12.50;99.90
58554;DHT22;48119;53.218;6.576;2023-11-21T03:56:50;12.50;99.90
58554;DHT22;48119;53.218;6.576;2023-11-21T03:59:16;12.50;99.90
58554;DHT22;48119;53.218;6.576;2023-11-21T04:01:41;12.50;99.90
58554;DHT22;48119;53.218;6.576;2023-11-21T04:04:10;12.50;99.90
58554;DHT22;48119;53.218;6.576;2023-11-21T04:06:36;12.50;99.90
58554;DHT22;48119;53.218;6.576;2023-11-21T04:09:03;12.50;99.90
58554;DHT22;48119;53.218;6.576;2023-11-21T04:11:30;12.40;99.90
58554;DHT22;48119;53.218;6.576;2023-11-21T04:13:55;12.40;99.90
58554;DHT22;48119;53.218;6.576;2023-11-21T04:16:21;12.40;99.90
58554;DHT22;48119;53.218;6.576;2023-11-21T04:18:47;12.40;99.90
58554;DHT22;48119;53.218;6.576;2023-11-21T04:21:13;12.30;99.90
58554;DHT22;48119;53.218;6.576;2023-11-21T04:23:39;12.30;99.90
58554;DHT22;48119;53.218;6.576;2023-11-21T04:26:05;12.30;99.90
58554;DHT22;48119;53.218;6.576;2023-11-21T04:28:32;12.30;99.90
58554;DHT22;48119;53.218;6.576;2023-11-21T04:30:57;12.30;99.90
58554;DHT22;48119;53.218;6.576;2023-11-21T04:33:23;12.30;99.90
58554;DHT22;48119;53.218;6.576;2023-11-21T04:35:49;12.30;99.90
58554;DHT22;48119;53.218;6.576;2023-11-21T04:38:15;12.30;99.90
58554;DHT22;48119;53.218;6.576;2023-11-21T04:40:41;12.30;99.90
58554;DHT22;48119;53.218;6.576;2023-11-21T04:43:06;12.30;99.90
58554;DHT22;48119;53.218;6.576;2023-11-21T04:45:32;12.30;99.90
58554;DHT22;48119;53.218;6.576;2023-11-21T04:47:58;12.30;99.90
58554;DHT22;48119;53.218;6.576;2023-11-21T04:50:23;12.30;99.90
58554;DHT22;48119;53.218;6.576;2023-11-21T04:52:52;12.20;99.90
58554;DHT22;48119;53.218;6.576;2023-11-21T04:55:18;12.20;99.90
58554;DHT22;48119;53.218;6.576;2023-11-21T04:57:45;12.20;99.90
58554;DHT22;48119;53.218;6.576;2023-11-21T05:00:12;12.30;99.90
58554;DHT22;48119;53.218;6.576;2023-11-21T05:02:40;12.30;99.90
58554;DHT22;48119;53.218;6.576;2023-11-21T05:05:07;12.20;99.90
58554;DHT22;48119;53.218;6.576;2023-11-21T05:07:33;12.20;99.90
58554;DHT22;48119;53.218;6.576;2023-11-21T05:10:01;12.20;99.90
58554;DHT22;48119;53.218;6.576;2023-11-21T05:12:31;12.20;99.90
58554;DHT22;48119;53.218;6.576;2023-11-21T05:15:07;12.20;99.90
58554;DHT22;48119;53.218;6.576;2023-11-21T05:17:35;12.30;99.90
58554;DHT22;48119;53.218;6.576;2023-11-21T05:20:04;12.20;99.90
58554;DHT22;48119;53.218;6.576;2023-11-21T05:22:34;12.20;99.90
58554;DHT22;48119;53.218;6.576;2023-11-21T05:25:00;12.20;99.90
58554;DHT22;48119;53.218;6.576;2023-11-21T05:27:26;12.20;99.90
58554;DHT22;48119;53.218;6.576;2023-11-21T05:29:52;12.20;99.90
58554;DHT22;48119;53.218;6.576;2023-11-21T05:32:17;12.20;99.90
58554;DHT22;48119;53.218;6.576;2023-11-21T05:34:43;12.20;99.90
58554;DHT22;48119;53.218;6.576;2023-11-21T05:37:09;12.20;99.90
58554;DHT22;48119;53.218;6.576;2023-11-21T05:39:35;12.20;99.90
58554;DHT22;48119;53.218;6.576;2023-11-21T05:42:01;12.10;99.90
58554;DHT22;48119;53.218;6.576;2023-11-21T05:44:27;12.20;99.90
58554;DHT22;48119;53.218;6.576;2023-11-21T05:46:53;12.20;99.90
58554;DHT22;48119;53.218;6.576;2023-11-21T05:49:18;12.20;99.90
58554;DHT22;48119;53.218;6.576;2023-11-21T05:51:47;12.20;99.90
58554;DHT22;48119;53.218;6.576;2023-11-21T05:54:13;12.20;99.90
58554;DHT22;48119;53.218;6.576;2023-11-21T05:56:42;12.20;99.90
58554;DHT22;48119;53.218;6.576;2023-11-21T05:59:07;12.30;99.90
58554;DHT22;48119;53.218;6.576;2023-11-21T06:01:33;12.30;99.90
58554;DHT22;48119;53.218;6.576;2023-11-21T06:04:00;12.30;99.90
58554;DHT22;48119;53.218;6.576;2023-11-21T06:06:25;12.20;99.90
58554;DHT22;48119;53.218;6.576;2023-11-21T06:08:52;12.20;99.90
58554;DHT22;48119;53.218;6.576;2023-11-21T06:11:17;12.20;99.90
58554;DHT22;48119;53.218;6.576;2023-11-21T06:13:44;12.20;99.90
58554;DHT22;48119;53.218;6.576;2023-11-21T06:16:09;12.30;99.90
58554;DHT22;48119;53.218;6.576;2023-11-21T06:18:35;12.30;99.90
58554;DHT22;48119;53.218;6.576;2023-11-21T06:21:01;12.20;99.90
58554;DHT22;48119;53.218;6.576;2023-11-21T06:23:27;12.20;99.90
58554;DHT22;48119;53.218;6.576;2023-11-21T06:25:52;12.20;99.90
58554;DHT22;48119;53.218;6.576;2023-11-21T06:28:18;12.20;99.90
58554;DHT22;48119;53.218;6.576;2023-11-21T06:30:44;12.20;99.90
58554;DHT22;48119;53.218;6.576;2023-11-21T06:33:12;12.10;99.90
58554;DHT22;48119;53.218;6.576;2023-11-21T06:35:38;12.10;99.90
58554;DHT22;48119;53.218;6.576;2023-11-21T06:38:05;12.10;99.90
58554;DHT22;48119;53.218;6.576;2023-11-21T06:40:31;12.10;99.90
58554;DHT22;48119;53.218;6.576;2023-11-21T06:42:59;12.10;99.90
58554;DHT22;48119;53.218;6.576;2023-11-21T06:45:24;12.10;99.90
58554;DHT22;48119;53.218;6.576;2023-11-21T06:47:50;12.10;99.90
58554;DHT22;48119;53.218;6.576;2023-11-21T06:50:16;12.00;99.90
58554;DHT22;48119;53.218;6.576;2023-11-21T06:52:42;12.00;99.90
58554;DHT22;48119;53.218;6.576;2023-11-21T06:55:09;12.00;99.90
58554;DHT22;48119;53.218;6.576;2023-11-21T06:57:35;11.90;99.90
58554;DHT22;48119;53.218;6.576;2023-11-21T07:00:01;12.00;99.90
58554;DHT22;48119;53.218;6.576;2023-11-21T07:02:27;12.00;99.90
58554;DHT22;48119;53.218;6.576;2023-11-21T07:04:54;12.00;99.90
58554;DHT22;48119;53.218;6.576;2023-11-21T07:07:20;12.00;99.90
58554;DHT22;48119;53.218;6.576;2023-11-21T07:09:45;11.90;99.90
58554;DHT22;48119;53.218;6.576;2023-11-21T07:12:11;11.90;99.90
58554;DHT22;48119;53.218;6.576;2023-11-21T07:14:37;11.90;99.90
58554;DHT22;48119;53.218;6.576;2023-11-21T07:17:05;11.90;99.90
58554;DHT22;48119;53.218;6.576;2023-11-21T07:19:32;11.90;99.90
58554;DHT22;48119;53.218;6.576;2023-11-21T07:21:57;11.90;99.90
58554;DHT22;48119;53.218;6.576;2023-11-21T07:24:23;11.80;99.90
58554;DHT22;48119;53.218;6.576;2023-11-21T07:26:49;11.80;99.90
58554;DHT22;48119;53.218;6.576;2023-11-21T07:29:15;11.80;99.90
58554;DHT22;48119;53.218;6.576;2023-11-21T07:31:40;11.80;99.90
58554;DHT22;48119;53.218;6.576;2023-11-21T07:34:12;11.80;99.90
58554;DHT22;48119;53.218;6.576;2023-11-21T07:36:37;11.80;99.90
58554;DHT22;48119;53.218;6.576;2023-11-21T07:39:03;11.80;99.90
58554;DHT22;48119;53.218;6.576;2023-11-21T07:41:29;11.80;99.90
58554;DHT22;48119;53.218;6.576;2023-11-21T07:43:55;11.80;99.90
58554;DHT22;48119;53.218;6.576;2023-11-21T07:46:21;11.70;99.90
58554;DHT22;48119;53.218;6.576;2023-11-21T07:48:47;11.70;99.90
58554;DHT22;48119;53.218;6.576;2023-11-21T07:51:13;11.70;99.90
58554;DHT22;48119;53.218;6.576;2023-11-21T07:53:39;11.70;99.90
58554;DHT22;48119;53.218;6.576;2023-11-21T07:56:08;11.70;99.90
58554;DHT22;48119;53.218;6.576;2023-11-21T07:58:35;11.70;99.90
58554;DHT22;48119;53.218;6.576;2023-11-21T08:01:04;11.70;99.90
58554;DHT22;48119;53.218;6.576;2023-11-21T08:03:31;11.70;99.90
58554;DHT22;48119;53.218;6.576;2023-11-21T08:05:57;11.70;99.90
58554;DHT22;48119;53.218;6.576;2023-11-21T08:08:23;11.70;99.90
58554;DHT22;48119;53.218;6.576;2023-11-21T08:10:50;11.70;99.90
58554;DHT22;48119;53.218;6.576;2023-11-21T08:13:25;11.70;99.90
58554;DHT22;48119;53.218;6.576;2023-11-21T08:15:55;11.70;99.90
58554;DHT22;48119;53.218;6.576;2023-11-21T08:18:22;11.70;99.90
58554;DHT22;48119;53.218;6.576;2023-11-21T08:20:48;11.70;99.90
58554;DHT22;48119;53.218;6.576;2023-11-21T08:23:15;11.70;99.90
58554;DHT22;48119;53.218;6.576;2023-11-21T08:25:43;11.70;99.90
58554;DHT22;48119;53.218;6.576;2023-11-21T08:28:09;11.70;99.90
58554;DHT22;48119;53.218;6.576;2023-11-21T08:30:35;11.70;99.90
58554;DHT22;48119;53.218;6.576;2023-11-21T08:33:01;11.80;99.90
58554;DHT22;48119;53.218;6.576;2023-11-21T08:35:29;11.80;99.90
58554;DHT22;48119;53.218;6.576;2023-11-21T08:37:54;11.80;99.90
58554;DHT22;48119;53.218;6.576;2023-11-21T08:40:21;11.80;99.90
58554;DHT22;48119;53.218;6.576;2023-11-21T08:42:47;11.80;99.90
58554;DHT22;48119;53.218;6.576;2023-11-21T08:45:14;11.80;99.90
58554;DHT22;48119;53.218;6.576;2023-11-21T08:47:40;11.80;99.90
58554;DHT22;48119;53.218;6.576;2023-11-21T08:50:07;11.80;99.90
58554;DHT22;48119;53.218;6.576;2023-11-21T08:52:36;11.70;99.90
58554;DHT22;48119;53.218;6.576;2023-11-21T08:55:03;11.70;99.90
58554;DHT22;48119;53.218;6.576;2023-11-21T08:57:36;11.60;99.90
58554;DHT22;48119;53.218;6.576;2023-11-21T09:00:03;11.60;99.90
58554;DHT22;48119;53.218;6.576;2023-11-21T09:02:33;11.60;99.90
58554;DHT22;48119;53.218;6.576;2023-11-21T09:05:00;11.60;99.90
58554;DHT22;48119;53.218;6.576;2023-11-21T09:07:29;11.60;99.90
58554;DHT22;48119;53.218;6.576;2023-11-21T09:09:55;11.60;99.90
58554;DHT22;48119;53.218;6.576;2023-11-21T09:12:20;11.60;99.90
58554;DHT22;48119;53.218;6.576;2023-11-21T09:14:47;11.60;99.90
58554;DHT22;48119;53.218;6.576;2023-11-21T09:17:13;11.60;99.90
58554;DHT22;48119;53.218;6.576;2023-11-21T09:19:40;11.60;99.90
58554;DHT22;48119;53.218;6.576;2023-11-21T09:22:06;11.60;99.90
58554;DHT22;48119;53.218;6.576;2023-11-21T09:24:33;11.60;99.90
58554;DHT22;48119;53.218;6.576;2023-11-21T09:26:59;11.50;99.90
58554;DHT22;48119;53.218;6.576;2023-11-21T09:29:28;11.50;99.90
58554;DHT22;48119;53.218;6.576;2023-11-21T09:31:55;11.50;99.90
58554;DHT22;48119;53.218;6.576;2023-11-21T09:34:21;11.60;99.90
58554;DHT22;48119;53.218;6.576;2023-11-21T09:36:48;11.60;99.90
58554;DHT22;48119;53.218;6.576;2023-11-21T09:39:14;11.60;99.90
58554;DHT22;48119;53.218;6.576;2023-11-21T09:44:13;11.60;99.90
58554;DHT22;48119;53.218;6.576;2023-11-21T09:46:43;11.60;99.90
58554;DHT22;48119;53.218;6.576;2023-11-21T09:49:09;11.50;99.90
58554;DHT22;48119;53.218;6.576;2023-11-21T09:51:43;11.50;99.90
58554;DHT22;48119;53.218;6.576;2023-11-21T09:54:10;11.50;99.90
58554;DHT22;48119;53.218;6.576;2023-11-21T09:56:40;11.40;99.90
58554;DHT22;48119;53.218;6.576;2023-11-21T09:59:06;11.40;99.90
58554;DHT22;48119;53.218;6.576;2023-11-21T10:01:36;11.40;99.90
58554;DHT22;48119;53.218;6.576;2023-11-21T10:04:03;11.40;99.90
58554;DHT22;48119;53.218;6.576;2023-11-21T10:06:30;11.40;99.90
58554;DHT22;48119;53.218;6.576;2023-11-21T10:08:58;11.40;99.90
58554;DHT22;48119;53.218;6.576;2023-11-21T10:11:28;11.40;99.90
58554;DHT22;48119;53.218;6.576;2023-11-21T10:13:55;11.40;99.90
58554;DHT22;48119;53.218;6.576;2023-11-21T10:16:25;11.40;99.90
58554;DHT22;48119;53.218;6.576;2023-11-21T10:18:52;11.40;99.90
58554;DHT22;48119;53.218;6.576;2023-11-21T10:21:18;11.40;99.90
58554;DHT22;48119;53.218;6.576;2023-11-21T10:23:44;11.40;99.90
58554;DHT22;48119;53.218;6.576;2023-11-21T10:26:12;11.30;99.90
58554;DHT22;48119;53.218;6.576;2023-11-21T10:28:58;11.40;99.90
58554;DHT22;48119;53.218;6.576;2023-11-21T10:31:27;11.40;99.90
58554;DHT22;48119;53.218;6.576;2023-11-21T10:33:52;11.40;99.90
58554;DHT22;48119;53.218;6.576;2023-11-21T10:36:28;11.40;99.90
58554;DHT22;48119;53.218;6.576;2023-11-21T10:38:54;11.40;99.90
58554;DHT22;48119;53.218;6.576;2023-11-21T10:41:20;11.40;99.90
58554;DHT22;48119;53.218;6.576;2023-11-21T10:43:47;11.40;99.90
58554;DHT22;48119;53.218;6.576;2023-11-21T10:46:14;11.40;99.90
58554;DHT22;48119;53.218;6.576;2023-11-21T10:48:41;11.50;99.90
58554;DHT22;48119;53.218;6.576;2023-11-21T10:51:08;11.50;99.90
58554;DHT22;48119;53.218;6.576;2023-11-21T10:53:41;11.40;99.90
58554;DHT22;48119;53.218;6.576;2023-11-21T10:56:09;11.50;99.90
58554;DHT22;48119;53.218;6.576;2023-11-21T10:58:38;11.50;99.90
58554;DHT22;48119;53.218;6.576;2023-11-21T11:01:06;11.50;99.90
58554;DHT22;48119;53.218;6.576;2023-11-21T11:03:32;11.40;99.90
58554;DHT22;48119;53.218;6.576;2023-11-21T11:06:02;11.40;99.90
58554;DHT22;48119;53.218;6.576;2023-11-21T11:08:28;11.40;99.90
58554;DHT22;48119;53.218;6.576;2023-11-21T11:10:55;11.50;99.90
58554;DHT22;48119;53.218;6.576;2023-11-21T11:13:21;11.50;99.90
58554;DHT22;48119;53.218;6.576;2023-11-21T11:15:48;11.50;99.90
58554;DHT22;48119;53.218;6.576;2023-11-21T11:18:16;11.50;99.90
58554;DHT22;48119;53.218;6.576;2023-11-21T11:20:43;11.50;99.90
58554;DHT22;48119;53.218;6.576;2023-11-21T11:26:35;11.50;99.90
58554;DHT22;48119;53.218;6.576;2023-11-21T11:29:24;11.50;99.90
58554;DHT22;48119;53.218;6.576;2023-11-21T11:32:06;11.50;99.90
58554;DHT22;48119;53.218;6.576;2023-11-21T11:35:04;11.50;99.90
58554;DHT22;48119;53.218;6.576;2023-11-21T11:37:32;11.50;99.90
58554;DHT22;48119;53.218;6.576;2023-11-21T11:39:59;11.50;99.90
58554;DHT22;48119;53.218;6.576;2023-11-21T11:42:26;11.60;99.90
58554;DHT22;48119;53.218;6.576;2023-11-21T11:44:53;11.60;99.90
58554;DHT22;48119;53.218;6.576;2023-11-21T11:47:28;11.60;99.90
58554;DHT22;48119;53.218;6.576;2023-11-21T11:50:04;11.60;99.90
58554;DHT22;48119;53.218;6.576;2023-11-21T11:52:43;11.60;99.90
58554;DHT22;48119;53.218;6.576;2023-11-21T11:55:18;11.60;99.90
58554;DHT22;48119;53.218;6.576;2023-11-21T11:57:48;11.70;99.90
58554;DHT22;48119;53.218;6.576;2023-11-21T12:00:20;11.70;99.90
58554;DHT22;48119;53.218;6.576;2023-11-21T12:02:49;11.80;99.90
58554;DHT22;48119;53.218;6.576;2023-11-21T12:05:20;11.80;99.90
58554;DHT22;48119;53.218;6.576;2023-11-21T12:10:14;11.80;99.90
58554;DHT22;48119;53.218;6.576;2023-11-21T12:12:47;11.80;99.90
58554;DHT22;48119;53.218;6.576;2023-11-21T12:15:13;11.80;99.90
58554;DHT22;48119;53.218;6.576;2023-11-21T12:17:43;11.80;99.90
58554;DHT22;48119;53.218;6.576;2023-11-21T12:20:10;11.80;99.90
58554;DHT22;48119;53.218;6.576;2023-11-21T12:22:55;11.80;99.90
58554;DHT22;48119;53.218;6.576;2023-11-21T12:25:23;11.70;99.90
58554;DHT22;48119;53.218;6.576;2023-11-21T12:27:51;11.70;99.90
58554;DHT22;48119;53.218;6.576;2023-11-21T12:30:19;11.70;99.90
58554;DHT22;48119;53.218;6.576;2023-11-21T12:32:52;11.70;99.90
58554;DHT22;48119;53.218;6.576;2023-11-21T12:35:19;11.70;99.90
58554;DHT22;48119;53.218;6.576;2023-11-21T12:37:47;11.70;99.90
58554;DHT22;48119;53.218;6.576;2023-11-21T12:40:14;11.70;99.90
58554;DHT22;48119;53.218;6.576;2023-11-21T12:42:45;11.70;99.90
58554;DHT22;48119;53.218;6.576;2023-11-21T12:45:18;11.70;99.90
58554;DHT22;48119;53.218;6.576;2023-11-21T12:50:11;11.70;99.90
58554;DHT22;48119;53.218;6.576;2023-11-21T12:52:44;11.70;99.90
58554;DHT22;48119;53.218;6.576;2023-11-21T12:55:22;11.70;99.90
58554;DHT22;48119;53.218;6.576;2023-11-21T12:57:53;11.70;99.90
58554;DHT22;48119;53.218;6.576;2023-11-21T13:00:34;11.70;99.90
58554;DHT22;48119;53.218;6.576;2023-11-21T13:03:04;11.70;99.90
58554;DHT22;48119;53.218;6.576;2023-11-21T13:05:35;11.70;99.90
58554;DHT22;48119;53.218;6.576;2023-11-21T13:08:05;11.70;99.90
58554;DHT22;48119;53.218;6.576;2023-11-21T13:10:34;11.70;99.90
58554;DHT22;48119;53.218;6.576;2023-11-21T13:13:04;11.70;99.90
58554;DHT22;48119;53.218;6.576;2023-11-21T13:15:40;11.70;99.90
58554;DHT22;48119;53.218;6.576;2023-11-21T13:18:08;11.70;99.90
58554;DHT22;48119;53.218;6.576;2023-11-21T13:20:37;11.70;99.90
58554;DHT22;48119;53.218;6.576;2023-11-21T13:23:07;11.70;99.90
58554;DHT22;48119;53.218;6.576;2023-11-21T13:25:34;11.70;99.90
58554;DHT22;48119;53.218;6.576;2023-11-21T13:28:00;11.70;99.90
58554;DHT22;48119;53.218;6.576;2023-11-21T13:30:26;11.70;99.90
58554;DHT22;48119;53.218;6.576;2023-11-21T13:32:56;11.70;99.90
58554;DHT22;48119;53.218;6.576;2023-11-21T13:35:28;11.70;99.90
58554;DHT22;48119;53.218;6.576;2023-11-21T13:38:21;11.70;99.90
58554;DHT22;48119;53.218;6.576;2023-11-21T13:40:52;11.70;99.90
58554;DHT22;48119;53.218;6.576;2023-11-21T13:43:23;11.70;99.90
58554;DHT22;48119;53.218;6.576;2023-11-21T13:45:51;11.70;99.90
58554;DHT22;48119;53.218;6.576;2023-11-21T13:48:38;11.70;99.90
58554;DHT22;48119;53.218;6.576;2023-11-21T13:51:16;11.70;99.90
58554;DHT22;48119;53.218;6.576;2023-11-21T13:53:46;11.70;99.90
58554;DHT22;48119;53.218;6.576;2023-11-21T13:56:18;11.60;99.90
58554;DHT22;48119;53.218;6.576;2023-11-21T13:58:50;11.70;99.90
58554;DHT22;48119;53.218;6.576;2023-11-21T14:01:26;11.60;99.90
58554;DHT22;48119;53.218;6.576;2023-11-21T14:04:15;11.60;99.90
58554;DHT22;48119;53.218;6.576;2023-11-21T14:06:40;11.60;99.90
58554;DHT22;48119;53.218;6.576;2023-11-21T14:09:14;11.60;99.90
58554;DHT22;48119;53.218;6.576;2023-11-21T14:11:49;11.60;99.90
58554;DHT22;48119;53.218;6.576;2023-11-21T14:14:16;11.60;99.90
58554;DHT22;48119;53.218;6.576;2023-11-21T14:16:43;11.60;99.90
58554;DHT22;48119;53.218;6.576;2023-11-21T14:19:09;11.60;99.90
58554;DHT22;48119;53.218;6.576;2023-11-21T14:21:44;11.60;99.90
58554;DHT22;48119;53.218;6.576;2023-11-21T14:24:11;11.60;99.90
58554;DHT22;48119;53.218;6.576;2023-11-21T14:26:43;11.60;99.90
58554;DHT22;48119;53.218;6.576;2023-11-21T14:29:12;11.60;99.90
58554;DHT22;48119;53.218;6.576;2023-11-21T14:31:43;11.60;99.90
58554;DHT22;48119;53.218;6.576;2023-11-21T14:34:09;11.50;99.90
58554;DHT22;48119;53.218;6.576;2023-11-21T14:36:36;11.60;99.90
58554;DHT22;48119;53.218;6.576;2023-11-21T14:39:05;11.60;99.90
58554;DHT22;48119;53.218;6.576;2023-11-21T14:41:46;11.50;99.90
58554;DHT22;48119;53.218;6.576;2023-11-21T14:44:11;11.50;99.90
58554;DHT22;48119;53.218;6.576;2023-11-21T14:46:38;11.50;99.90
58554;DHT22;48119;53.218;6.576;2023-11-21T14:49:05;11.50;99.90
58554;DHT22;48119;53.218;6.576;2023-11-21T14:51:57;11.50;99.90
58554;DHT22;48119;53.218;6.576;2023-11-21T14:54:31;11.50;99.90
58554;DHT22;48119;53.218;6.576;2023-11-21T14:57:10;11.50;99.90
58554;DHT22;48119;53.218;6.576;2023-11-21T14:59:47;11.50;99.90
58554;DHT22;48119;53.218;6.576;2023-11-21T15:02:23;11.50;99.90
58554;DHT22;48119;53.218;6.576;2023-11-21T15:05:09;11.50;99.90
58554;DHT22;48119;53.218;6.576;2023-11-21T15:07:40;11.50;99.90
58554;DHT22;48119;53.218;6.576;2023-11-21T15:10:07;11.50;99.90
58554;DHT22;48119;53.218;6.576;2023-11-21T15:12:37;11.50;99.90
58554;DHT22;48119;53.218;6.576;2023-11-21T15:15:05;11.50;99.90
58554;DHT22;48119;53.218;6.576;2023-11-21T15:17:36;11.50;99.90
58554;DHT22;48119;53.218;6.576;2023-11-21T15:20:03;11.50;99.90
58554;DHT22;48119;53.218;6.576;2023-11-21T15:22:32;11.50;99.90
58554;DHT22;48119;53.218;6.576;2023-11-21T15:24:58;11.50;99.90
58554;DHT22;48119;53.218;6.576;2023-11-21T15:27:24;11.40;99.90
58554;DHT22;48119;53.218;6.576;2023-11-21T15:29:52;11.40;99.90
58554;DHT22;48119;53.218;6.576;2023-11-21T15:32:19;11.40;99.90
58554;DHT22;48119;53.218;6.576;2023-11-21T15:34:45;11.40;99.90
58554;DHT22;48119;53.218;6.576;2023-11-21T15:37:12;11.40;99.90
58554;DHT22;48119;53.218;6.576;2023-11-21T15:39:38;11.40;99.90
58554;DHT22;48119;53.218;6.576;2023-11-21T15:42:05;11.40;99.90
58554;DHT22;48119;53.218;6.576;2023-11-21T15:44:33;11.40;99.90
58554;DHT22;48119;53.218;6.576;2023-11-21T15:46:59;11.40;99.90